sensor_id;sensor_type;location;lat;lon;timestamp;P1;durP1;ratioP1;P2;durP2;ratioP2
45536;SDS011;31262;51.978;5.924;2022-08-02T00:00:13;3.13;;;0.47;;
45536;SDS011;31262;51.978;5.924;2022-08-02T00:02:40;3.00;;;0.50;;
45536;SDS011;31262;51.978;5.924;2022-08-02T00:05:06;2.42;;;0.40;;
45536;SDS011;31262;51.978;5.924;2022-08-02T00:07:32;2.45;;;0.50;;
45536;SDS011;31262;51.978;5.924;2022-08-02T00:09:58;3.28;;;0.88;;
45536;SDS011;31262;51.978;5.924;2022-08-02T00:12:24;4.18;;;0.50;;
45536;SDS011;31262;51.978;5.924;2022-08-02T00:14:49;1.75;;;0.40;;
45536;SDS011;31262;51.978;5.924;2022-08-02T00:17:15;4.32;;;0.60;;
45536;SDS011;31262;51.978;5.924;2022-08-02T00:19:41;2.53;;;0.50;;
45536;SDS011;31262;51.978;5.924;2022-08-02T00:22:06;3.22;;;0.43;;
45536;SDS011;31262;51.978;5.924;2022-08-02T00:24:32;3.45;;;0.55;;
45536;SDS011;31262;51.978;5.924;2022-08-02T00:26:58;2.00;;;0.43;;
45536;SDS011;31262;51.978;5.924;2022-08-02T00:29:24;3.13;;;0.60;;
45536;SDS011;31262;51.978;5.924;2022-08-02T00:31:49;2.28;;;0.50;;
45536;SDS011;31262;51.978;5.924;2022-08-02T00:34:15;6.13;;;0.50;;
45536;SDS011;31262;51.978;5.924;2022-08-02T00:36:40;2.15;;;0.47;;
45536;SDS011;31262;51.978;5.924;2022-08-02T00:39:06;3.97;;;0.57;;
45536;SDS011;31262;51.978;5.924;2022-08-02T00:41:32;2.35;;;0.40;;
45536;SDS011;31262;51.978;5.924;2022-08-02T00:43:57;1.80;;;0.38;;
45536;SDS011;31262;51.978;5.924;2022-08-02T00:46:23;2.78;;;0.50;;
45536;SDS011;31262;51.978;5.924;2022-08-02T00:48:48;2.65;;;0.60;;
45536;SDS011;31262;51.978;5.924;2022-08-02T00:51:15;2.03;;;0.40;;
45536;SDS011;31262;51.978;5.924;2022-08-02T00:53:41;2.60;;;0.65;;
45536;SDS011;31262;51.978;5.924;2022-08-02T00:56:07;2.15;;;0.40;;
45536;SDS011;31262;51.978;5.924;2022-08-02T00:58:33;2.13;;;0.40;;
45536;SDS011;31262;51.978;5.924;2022-08-02T01:00:58;4.28;;;0.50;;
45536;SDS011;31262;51.978;5.924;2022-08-02T01:03:26;2.33;;;0.50;;
45536;SDS011;31262;51.978;5.924;2022-08-02T01:05:52;2.00;;;0.43;;
45536;SDS011;31262;51.978;5.924;2022-08-02T01:08:17;3.30;;;0.50;;
45536;SDS011;31262;51.978;5.924;2022-08-02T01:10:43;3.25;;;0.40;;
45536;SDS011;31262;51.978;5.924;2022-08-02T01:13:09;3.35;;;0.50;;
45536;SDS011;31262;51.978;5.924;2022-08-02T01:15:36;3.00;;;0.52;;
45536;SDS011;31262;51.978;5.924;2022-08-02T01:18:09;3.47;;;0.40;;
45536;SDS011;31262;51.978;5.924;2022-08-02T01:23:28;2.40;;;0.50;;
45536;SDS011;31262;51.978;5.924;2022-08-02T01:31:56;4.10;;;0.45;;
45536;SDS011;31262;51.978;5.924;2022-08-02T01:34:42;2.75;;;0.40;;
45536;SDS011;31262;51.978;5.924;2022-08-02T01:40:10;4.63;;;0.50;;
45536;SDS011;31262;51.978;5.924;2022-08-02T01:42:48;3.05;;;0.52;;
45536;SDS011;31262;51.978;5.924;2022-08-02T01:45:18;3.85;;;0.45;;
45536;SDS011;31262;51.978;5.924;2022-08-02T01:47:44;1.70;;;0.50;;
45536;SDS011;31262;51.978;5.924;2022-08-02T01:50:15;2.05;;;0.60;;
45536;SDS011;31262;51.978;5.924;2022-08-02T01:52:44;2.80;;;0.70;;
45536;SDS011;31262;51.978;5.924;2022-08-02T01:55:15;2.55;;;0.40;;
45536;SDS011;31262;51.978;5.924;2022-08-02T01:57:49;4.57;;;0.60;;
45536;SDS011;31262;51.978;5.924;2022-08-02T02:00:21;5.05;;;0.90;;
45536;SDS011;31262;51.978;5.924;2022-08-02T02:05:18;4.10;;;0.57;;
45536;SDS011;31262;51.978;5.924;2022-08-02T02:07:45;1.52;;;0.43;;
45536;SDS011;31262;51.978;5.924;2022-08-02T02:12:41;1.30;;;0.40;;
45536;SDS011;31262;51.978;5.924;2022-08-02T02:15:11;1.92;;;0.40;;
45536;SDS011;31262;51.978;5.924;2022-08-02T02:17:37;3.08;;;0.40;;
45536;SDS011;31262;51.978;5.924;2022-08-02T02:20:07;2.40;;;0.60;;
45536;SDS011;31262;51.978;5.924;2022-08-02T02:22:36;3.05;;;0.40;;
45536;SDS011;31262;51.978;5.924;2022-08-02T02:25:01;2.53;;;0.50;;
45536;SDS011;31262;51.978;5.924;2022-08-02T02:27:27;2.50;;;0.50;;
45536;SDS011;31262;51.978;5.924;2022-08-02T02:29:53;1.98;;;0.50;;
45536;SDS011;31262;51.978;5.924;2022-08-02T02:32:20;2.30;;;0.43;;
45536;SDS011;31262;51.978;5.924;2022-08-02T02:34:48;3.28;;;0.50;;
45536;SDS011;31262;51.978;5.924;2022-08-02T02:37:21;2.75;;;0.50;;
45536;SDS011;31262;51.978;5.924;2022-08-02T02:39:51;2.50;;;0.43;;
45536;SDS011;31262;51.978;5.924;2022-08-02T02:42:20;2.05;;;0.70;;
45536;SDS011;31262;51.978;5.924;2022-08-02T02:44:56;1.60;;;0.43;;
45536;SDS011;31262;51.978;5.924;2022-08-02T02:47:23;2.72;;;0.50;;
45536;SDS011;31262;51.978;5.924;2022-08-02T02:49:49;2.67;;;0.50;;
45536;SDS011;31262;51.978;5.924;2022-08-02T02:52:16;1.83;;;0.38;;
45536;SDS011;31262;51.978;5.924;2022-08-02T02:54:46;4.20;;;0.60;;
45536;SDS011;31262;51.978;5.924;2022-08-02T02:57:14;2.42;;;0.52;;
45536;SDS011;31262;51.978;5.924;2022-08-02T02:59:40;2.28;;;0.50;;
45536;SDS011;31262;51.978;5.924;2022-08-02T03:02:07;2.90;;;0.50;;
45536;SDS011;31262;51.978;5.924;2022-08-02T03:04:34;2.28;;;0.47;;
45536;SDS011;31262;51.978;5.924;2022-08-02T03:07:03;2.65;;;0.52;;
45536;SDS011;31262;51.978;5.924;2022-08-02T03:09:29;1.20;;;0.25;;
45536;SDS011;31262;51.978;5.924;2022-08-02T03:11:55;1.90;;;0.50;;
45536;SDS011;31262;51.978;5.924;2022-08-02T03:14:21;3.13;;;0.60;;
45536;SDS011;31262;51.978;5.924;2022-08-02T03:16:48;3.45;;;0.70;;
45536;SDS011;31262;51.978;5.924;2022-08-02T03:19:15;3.47;;;0.70;;
45536;SDS011;31262;51.978;5.924;2022-08-02T03:21:42;2.67;;;0.60;;
45536;SDS011;31262;51.978;5.924;2022-08-02T03:24:08;3.75;;;0.60;;
45536;SDS011;31262;51.978;5.924;2022-08-02T03:26:34;2.58;;;0.60;;
45536;SDS011;31262;51.978;5.924;2022-08-02T03:29:00;2.70;;;0.52;;
45536;SDS011;31262;51.978;5.924;2022-08-02T03:31:26;2.45;;;0.50;;
45536;SDS011;31262;51.978;5.924;2022-08-02T03:33:53;2.80;;;0.60;;
45536;SDS011;31262;51.978;5.924;2022-08-02T03:36:20;5.28;;;0.60;;
45536;SDS011;31262;51.978;5.924;2022-08-02T03:38:48;2.45;;;0.50;;
45536;SDS011;31262;51.978;5.924;2022-08-02T03:41:15;2.85;;;0.63;;
45536;SDS011;31262;51.978;5.924;2022-08-02T03:43:43;2.17;;;0.60;;
45536;SDS011;31262;51.978;5.924;2022-08-02T03:46:09;3.35;;;0.55;;
45536;SDS011;31262;51.978;5.924;2022-08-02T03:48:40;1.83;;;0.57;;
45536;SDS011;31262;51.978;5.924;2022-08-02T03:51:06;2.88;;;0.60;;
45536;SDS011;31262;51.978;5.924;2022-08-02T03:53:32;3.58;;;0.60;;
45536;SDS011;31262;51.978;5.924;2022-08-02T03:55:59;2.83;;;0.57;;
45536;SDS011;31262;51.978;5.924;2022-08-02T03:58:25;3.58;;;0.70;;
45536;SDS011;31262;51.978;5.924;2022-08-02T04:00:51;4.05;;;0.60;;
45536;SDS011;31262;51.978;5.924;2022-08-02T04:03:17;4.07;;;0.70;;
45536;SDS011;31262;51.978;5.924;2022-08-02T04:05:43;2.42;;;0.60;;
45536;SDS011;31262;51.978;5.924;2022-08-02T04:08:09;2.10;;;0.50;;
45536;SDS011;31262;51.978;5.924;2022-08-02T04:10:34;3.67;;;0.57;;
45536;SDS011;31262;51.978;5.924;2022-08-02T04:13:21;4.20;;;0.85;;
45536;SDS011;31262;51.978;5.924;2022-08-02T04:15:49;3.95;;;0.70;;
45536;SDS011;31262;51.978;5.924;2022-08-02T04:20:44;2.90;;;0.70;;
45536;SDS011;31262;51.978;5.924;2022-08-02T04:23:12;4.90;;;0.70;;
45536;SDS011;31262;51.978;5.924;2022-08-02T04:25:39;4.75;;;1.02;;
45536;SDS011;31262;51.978;5.924;2022-08-02T04:28:06;4.70;;;1.00;;
45536;SDS011;31262;51.978;5.924;2022-08-02T04:30:33;4.60;;;0.90;;
45536;SDS011;31262;51.978;5.924;2022-08-02T04:33:01;4.05;;;1.20;;
45536;SDS011;31262;51.978;5.924;2022-08-02T04:35:27;4.53;;;1.20;;
45536;SDS011;31262;51.978;5.924;2022-08-02T04:37:53;5.68;;;1.40;;
45536;SDS011;31262;51.978;5.924;2022-08-02T04:40:19;4.22;;;1.13;;
45536;SDS011;31262;51.978;5.924;2022-08-02T04:42:44;6.28;;;1.30;;
45536;SDS011;31262;51.978;5.924;2022-08-02T04:45:10;4.13;;;1.30;;
45536;SDS011;31262;51.978;5.924;2022-08-02T04:47:36;4.95;;;0.85;;
45536;SDS011;31262;51.978;5.924;2022-08-02T04:50:02;2.67;;;0.60;;
45536;SDS011;31262;51.978;5.924;2022-08-02T04:52:28;3.72;;;0.75;;
45536;SDS011;31262;51.978;5.924;2022-08-02T04:54:54;4.53;;;1.08;;
45536;SDS011;31262;51.978;5.924;2022-08-02T04:57:20;3.30;;;0.70;;
45536;SDS011;31262;51.978;5.924;2022-08-02T05:00:04;3.10;;;0.80;;
45536;SDS011;31262;51.978;5.924;2022-08-02T05:02:31;4.22;;;0.90;;
45536;SDS011;31262;51.978;5.924;2022-08-02T05:04:57;4.20;;;0.70;;
45536;SDS011;31262;51.978;5.924;2022-08-02T05:07:23;3.72;;;0.85;;
45536;SDS011;31262;51.978;5.924;2022-08-02T05:09:49;4.30;;;0.93;;
45536;SDS011;31262;51.978;5.924;2022-08-02T05:12:15;6.00;;;0.88;;
45536;SDS011;31262;51.978;5.924;2022-08-02T05:14:40;5.63;;;1.15;;
45536;SDS011;31262;51.978;5.924;2022-08-02T05:17:06;3.97;;;0.95;;
45536;SDS011;31262;51.978;5.924;2022-08-02T05:19:31;2.97;;;0.80;;
45536;SDS011;31262;51.978;5.924;2022-08-02T05:21:57;6.40;;;1.20;;
45536;SDS011;31262;51.978;5.924;2022-08-02T05:24:23;5.50;;;1.17;;
45536;SDS011;31262;51.978;5.924;2022-08-02T05:26:49;5.20;;;1.50;;
45536;SDS011;31262;51.978;5.924;2022-08-02T05:29:15;6.90;;;1.45;;
45536;SDS011;31262;51.978;5.924;2022-08-02T05:31:41;6.40;;;1.60;;
45536;SDS011;31262;51.978;5.924;2022-08-02T05:34:07;5.10;;;1.48;;
45536;SDS011;31262;51.978;5.924;2022-08-02T05:36:33;3.50;;;0.95;;
45536;SDS011;31262;51.978;5.924;2022-08-02T05:38:58;2.38;;;0.70;;
45536;SDS011;31262;51.978;5.924;2022-08-02T05:41:24;5.40;;;1.42;;
45536;SDS011;31262;51.978;5.924;2022-08-02T05:43:49;3.97;;;1.27;;
45536;SDS011;31262;51.978;5.924;2022-08-02T05:46:15;3.90;;;1.15;;
45536;SDS011;31262;51.978;5.924;2022-08-02T05:48:41;2.60;;;1.00;;
45536;SDS011;31262;51.978;5.924;2022-08-02T05:51:11;5.22;;;1.48;;
45536;SDS011;31262;51.978;5.924;2022-08-02T05:54:02;4.35;;;1.30;;
45536;SDS011;31262;51.978;5.924;2022-08-02T05:56:38;5.72;;;1.00;;
45536;SDS011;31262;51.978;5.924;2022-08-02T06:02:15;8.35;;;2.55;;
45536;SDS011;31262;51.978;5.924;2022-08-02T06:05:02;4.57;;;1.45;;
45536;SDS011;31262;51.978;5.924;2022-08-02T06:07:28;4.35;;;1.25;;
45536;SDS011;31262;51.978;5.924;2022-08-02T06:09:58;7.22;;;2.78;;
45536;SDS011;31262;51.978;5.924;2022-08-02T06:12:26;5.57;;;1.88;;
45536;SDS011;31262;51.978;5.924;2022-08-02T06:14:55;6.32;;;1.85;;
45536;SDS011;31262;51.978;5.924;2022-08-02T06:17:27;3.88;;;1.30;;
45536;SDS011;31262;51.978;5.924;2022-08-02T06:19:55;5.72;;;1.25;;
45536;SDS011;31262;51.978;5.924;2022-08-02T06:22:26;5.55;;;0.90;;
45536;SDS011;31262;51.978;5.924;2022-08-02T06:24:54;3.85;;;1.10;;
45536;SDS011;31262;51.978;5.924;2022-08-02T06:27:20;4.13;;;1.20;;
45536;SDS011;31262;51.978;5.924;2022-08-02T06:29:50;6.95;;;1.40;;
45536;SDS011;31262;51.978;5.924;2022-08-02T06:32:18;3.75;;;1.23;;
45536;SDS011;31262;51.978;5.924;2022-08-02T06:34:43;4.75;;;1.20;;
45536;SDS011;31262;51.978;5.924;2022-08-02T06:37:15;4.22;;;1.15;;
45536;SDS011;31262;51.978;5.924;2022-08-02T06:43:02;4.93;;;1.00;;
45536;SDS011;31262;51.978;5.924;2022-08-02T06:45:31;9.20;;;5.28;;
45536;SDS011;31262;51.978;5.924;2022-08-02T06:47:57;7.47;;;3.95;;
45536;SDS011;31262;51.978;5.924;2022-08-02T06:50:23;6.07;;;2.50;;
45536;SDS011;31262;51.978;5.924;2022-08-02T06:52:48;6.05;;;2.70;;
45536;SDS011;31262;51.978;5.924;2022-08-02T06:55:14;7.88;;;3.20;;
45536;SDS011;31262;51.978;5.924;2022-08-02T06:57:40;6.40;;;2.03;;
45536;SDS011;31262;51.978;5.924;2022-08-02T07:00:06;5.80;;;1.92;;
45536;SDS011;31262;51.978;5.924;2022-08-02T07:02:34;6.63;;;1.80;;
45536;SDS011;31262;51.978;5.924;2022-08-02T07:05:01;5.00;;;1.30;;
45536;SDS011;31262;51.978;5.924;2022-08-02T07:07:28;5.53;;;1.00;;
45536;SDS011;31262;51.978;5.924;2022-08-02T07:09:53;6.25;;;1.50;;
45536;SDS011;31262;51.978;5.924;2022-08-02T07:12:19;4.13;;;1.33;;
45536;SDS011;31262;51.978;5.924;2022-08-02T07:14:44;6.25;;;1.13;;
45536;SDS011;31262;51.978;5.924;2022-08-02T07:17:10;4.57;;;1.02;;
45536;SDS011;31262;51.978;5.924;2022-08-02T07:19:37;6.20;;;1.45;;
45536;SDS011;31262;51.978;5.924;2022-08-02T07:22:02;4.13;;;1.00;;
45536;SDS011;31262;51.978;5.924;2022-08-02T07:24:28;6.90;;;1.75;;
45536;SDS011;31262;51.978;5.924;2022-08-02T07:26:54;4.32;;;1.50;;
45536;SDS011;31262;51.978;5.924;2022-08-02T07:29:19;4.28;;;1.10;;
45536;SDS011;31262;51.978;5.924;2022-08-02T07:31:45;4.15;;;1.10;;
45536;SDS011;31262;51.978;5.924;2022-08-02T07:34:11;5.82;;;1.50;;
45536;SDS011;31262;51.978;5.924;2022-08-02T07:36:36;4.65;;;1.27;;
45536;SDS011;31262;51.978;5.924;2022-08-02T07:39:02;5.15;;;2.05;;
45536;SDS011;31262;51.978;5.924;2022-08-02T07:41:28;5.53;;;1.30;;
45536;SDS011;31262;51.978;5.924;2022-08-02T07:43:54;2.90;;;1.17;;
45536;SDS011;31262;51.978;5.924;2022-08-02T07:46:19;7.00;;;1.17;;
45536;SDS011;31262;51.978;5.924;2022-08-02T07:48:45;7.18;;;2.20;;
45536;SDS011;31262;51.978;5.924;2022-08-02T07:51:12;6.20;;;1.80;;
45536;SDS011;31262;51.978;5.924;2022-08-02T07:53:38;5.15;;;1.48;;
45536;SDS011;31262;51.978;5.924;2022-08-02T07:56:03;4.50;;;1.20;;
45536;SDS011;31262;51.978;5.924;2022-08-02T07:58:29;3.80;;;1.30;;
45536;SDS011;31262;51.978;5.924;2022-08-02T08:00:55;4.03;;;1.30;;
45536;SDS011;31262;51.978;5.924;2022-08-02T08:03:20;4.15;;;1.55;;
45536;SDS011;31262;51.978;5.924;2022-08-02T08:05:46;4.45;;;1.30;;
45536;SDS011;31262;51.978;5.924;2022-08-02T08:08:11;6.32;;;1.20;;
45536;SDS011;31262;51.978;5.924;2022-08-02T08:10:38;4.00;;;1.52;;
45536;SDS011;31262;51.978;5.924;2022-08-02T08:13:04;4.78;;;1.85;;
45536;SDS011;31262;51.978;5.924;2022-08-02T08:15:30;4.40;;;2.60;;
45536;SDS011;31262;51.978;5.924;2022-08-02T08:17:56;5.13;;;1.70;;
45536;SDS011;31262;51.978;5.924;2022-08-02T08:20:22;4.90;;;1.70;;
45536;SDS011;31262;51.978;5.924;2022-08-02T08:22:48;4.82;;;2.58;;
45536;SDS011;31262;51.978;5.924;2022-08-02T08:25:14;6.90;;;3.10;;
45536;SDS011;31262;51.978;5.924;2022-08-02T08:27:47;4.95;;;2.08;;
45536;SDS011;31262;51.978;5.924;2022-08-02T08:30:14;4.70;;;1.95;;
45536;SDS011;31262;51.978;5.924;2022-08-02T08:32:40;4.32;;;2.08;;
45536;SDS011;31262;51.978;5.924;2022-08-02T08:35:05;5.82;;;2.50;;
45536;SDS011;31262;51.978;5.924;2022-08-02T08:37:33;4.45;;;1.95;;
45536;SDS011;31262;51.978;5.924;2022-08-02T08:40:03;6.38;;;2.15;;
45536;SDS011;31262;51.978;5.924;2022-08-02T08:42:29;7.05;;;3.17;;
45536;SDS011;31262;51.978;5.924;2022-08-02T08:44:56;6.65;;;4.07;;
45536;SDS011;31262;51.978;5.924;2022-08-02T08:47:24;7.55;;;3.42;;
45536;SDS011;31262;51.978;5.924;2022-08-02T08:49:58;5.30;;;2.25;;
45536;SDS011;31262;51.978;5.924;2022-08-02T08:52:30;6.20;;;3.60;;
45536;SDS011;31262;51.978;5.924;2022-08-02T08:55:00;8.20;;;3.50;;
45536;SDS011;31262;51.978;5.924;2022-08-02T08:57:28;7.13;;;3.87;;
45536;SDS011;31262;51.978;5.924;2022-08-02T08:59:55;4.60;;;1.90;;
45536;SDS011;31262;51.978;5.924;2022-08-02T09:02:22;6.57;;;2.42;;
45536;SDS011;31262;51.978;5.924;2022-08-02T09:04:48;3.72;;;1.73;;
45536;SDS011;31262;51.978;5.924;2022-08-02T09:07:14;3.92;;;2.05;;
45536;SDS011;31262;51.978;5.924;2022-08-02T09:09:39;5.20;;;2.40;;
45536;SDS011;31262;51.978;5.924;2022-08-02T09:12:12;4.65;;;2.38;;
45536;SDS011;31262;51.978;5.924;2022-08-02T09:14:38;3.22;;;1.42;;
45536;SDS011;31262;51.978;5.924;2022-08-02T09:17:05;6.35;;;2.05;;
45536;SDS011;31262;51.978;5.924;2022-08-02T09:19:34;5.20;;;2.08;;
45536;SDS011;31262;51.978;5.924;2022-08-02T09:22:04;5.65;;;2.08;;
45536;SDS011;31262;51.978;5.924;2022-08-02T09:24:42;4.20;;;1.50;;
45536;SDS011;31262;51.978;5.924;2022-08-02T09:27:19;2.70;;;0.85;;
45536;SDS011;31262;51.978;5.924;2022-08-02T09:29:46;2.60;;;0.70;;
45536;SDS011;31262;51.978;5.924;2022-08-02T09:32:13;2.92;;;1.02;;
45536;SDS011;31262;51.978;5.924;2022-08-02T09:37:22;3.50;;;0.85;;
45536;SDS011;31262;51.978;5.924;2022-08-02T09:39:52;1.88;;;0.60;;
45536;SDS011;31262;51.978;5.924;2022-08-02T09:42:18;1.95;;;0.50;;
45536;SDS011;31262;51.978;5.924;2022-08-02T09:44:54;2.08;;;0.40;;
45536;SDS011;31262;51.978;5.924;2022-08-02T09:47:25;1.55;;;0.40;;
45536;SDS011;31262;51.978;5.924;2022-08-02T09:49:54;1.52;;;0.40;;
45536;SDS011;31262;51.978;5.924;2022-08-02T09:52:21;2.13;;;0.40;;
45536;SDS011;31262;51.978;5.924;2022-08-02T09:54:51;2.22;;;0.50;;
45536;SDS011;31262;51.978;5.924;2022-08-02T09:57:35;1.77;;;0.50;;
45536;SDS011;31262;51.978;5.924;2022-08-02T10:00:06;1.83;;;0.60;;
45536;SDS011;31262;51.978;5.924;2022-08-02T10:02:35;1.05;;;0.40;;
45536;SDS011;31262;51.978;5.924;2022-08-02T10:05:00;2.05;;;0.50;;
45536;SDS011;31262;51.978;5.924;2022-08-02T10:07:26;1.98;;;0.40;;
45536;SDS011;31262;51.978;5.924;2022-08-02T10:09:54;2.42;;;0.38;;
45536;SDS011;31262;51.978;5.924;2022-08-02T10:12:20;2.10;;;0.50;;
45536;SDS011;31262;51.978;5.924;2022-08-02T10:14:48;1.27;;;0.30;;
45536;SDS011;31262;51.978;5.924;2022-08-02T10:19:41;1.45;;;0.40;;
45536;SDS011;31262;51.978;5.924;2022-08-02T10:22:10;3.90;;;1.20;;
45536;SDS011;31262;51.978;5.924;2022-08-02T10:24:38;2.40;;;0.60;;
45536;SDS011;31262;51.978;5.924;2022-08-02T10:27:38;2.40;;;0.40;;
45536;SDS011;31262;51.978;5.924;2022-08-02T10:29:57;5.00;;;1.02;;
45536;SDS011;31262;51.978;5.924;2022-08-02T10:32:28;2.88;;;0.60;;
45536;SDS011;31262;51.978;5.924;2022-08-02T10:35:07;1.65;;;0.50;;
45536;SDS011;31262;51.978;5.924;2022-08-02T10:37:36;1.75;;;0.50;;
45536;SDS011;31262;51.978;5.924;2022-08-02T10:40:03;1.60;;;0.40;;
45536;SDS011;31262;51.978;5.924;2022-08-02T10:45:11;1.67;;;0.45;;
45536;SDS011;31262;51.978;5.924;2022-08-02T10:47:51;3.58;;;0.47;;
45536;SDS011;31262;51.978;5.924;2022-08-02T10:53:20;2.08;;;0.57;;
45536;SDS011;31262;51.978;5.924;2022-08-02T10:55:50;1.50;;;0.52;;
45536;SDS011;31262;51.978;5.924;2022-08-02T10:58:17;1.63;;;0.40;;
45536;SDS011;31262;51.978;5.924;2022-08-02T11:00:44;1.85;;;0.40;;
45536;SDS011;31262;51.978;5.924;2022-08-02T11:06:10;1.35;;;0.40;;
45536;SDS011;31262;51.978;5.924;2022-08-02T11:08:37;1.30;;;0.40;;
45536;SDS011;31262;51.978;5.924;2022-08-02T11:16:23;1.30;;;0.50;;
45536;SDS011;31262;51.978;5.924;2022-08-02T11:19:27;1.17;;;0.37;;
45536;SDS011;31262;51.978;5.924;2022-08-02T11:22:06;1.77;;;0.40;;
45536;SDS011;31262;51.978;5.924;2022-08-02T11:24:37;1.25;;;0.30;;
45536;SDS011;31262;51.978;5.924;2022-08-02T11:27:04;2.25;;;0.30;;
45536;SDS011;31262;51.978;5.924;2022-08-02T11:29:41;0.90;;;0.40;;
45536;SDS011;31262;51.978;5.924;2022-08-02T11:34:45;1.90;;;0.30;;
45536;SDS011;31262;51.978;5.924;2022-08-02T11:37:25;0.77;;;0.32;;
45536;SDS011;31262;51.978;5.924;2022-08-02T11:39:55;3.35;;;0.35;;
45536;SDS011;31262;51.978;5.924;2022-08-02T11:42:21;2.42;;;0.40;;
45536;SDS011;31262;51.978;5.924;2022-08-02T11:44:54;0.70;;;0.30;;
45536;SDS011;31262;51.978;5.924;2022-08-02T11:47:20;1.10;;;0.40;;
45536;SDS011;31262;51.978;5.924;2022-08-02T11:49:46;1.67;;;0.40;;
45536;SDS011;31262;51.978;5.924;2022-08-02T11:52:11;0.80;;;0.30;;
45536;SDS011;31262;51.978;5.924;2022-08-02T11:54:37;2.55;;;0.30;;
45536;SDS011;31262;51.978;5.924;2022-08-02T11:57:12;1.05;;;0.30;;
45536;SDS011;31262;51.978;5.924;2022-08-02T11:59:44;1.35;;;0.40;;
45536;SDS011;31262;51.978;5.924;2022-08-02T12:02:11;0.80;;;0.30;;
45536;SDS011;31262;51.978;5.924;2022-08-02T12:04:37;1.45;;;0.40;;
45536;SDS011;31262;51.978;5.924;2022-08-02T12:07:04;0.88;;;0.30;;
45536;SDS011;31262;51.978;5.924;2022-08-02T12:09:31;1.38;;;0.40;;
45536;SDS011;31262;51.978;5.924;2022-08-02T12:11:58;0.95;;;0.30;;
45536;SDS011;31262;51.978;5.924;2022-08-02T12:14:25;0.93;;;0.30;;
45536;SDS011;31262;51.978;5.924;2022-08-02T12:16:52;1.02;;;0.30;;
45536;SDS011;31262;51.978;5.924;2022-08-02T12:19:39;0.90;;;0.30;;
45536;SDS011;31262;51.978;5.924;2022-08-02T12:22:10;0.90;;;0.30;;
45536;SDS011;31262;51.978;5.924;2022-08-02T12:24:42;0.60;;;0.20;;
45536;SDS011;31262;51.978;5.924;2022-08-02T12:27:33;0.75;;;0.22;;
45536;SDS011;31262;51.978;5.924;2022-08-02T12:30:03;7.25;;;4.90;;
45536;SDS011;31262;51.978;5.924;2022-08-02T12:32:31;4.68;;;2.40;;
45536;SDS011;31262;51.978;5.924;2022-08-02T12:35:07;5.40;;;1.88;;
45536;SDS011;31262;51.978;5.924;2022-08-02T12:37:33;2.47;;;0.60;;
45536;SDS011;31262;51.978;5.924;2022-08-02T12:40:16;1.48;;;0.40;;
45536;SDS011;31262;51.978;5.924;2022-08-02T12:42:56;1.77;;;0.40;;
45536;SDS011;31262;51.978;5.924;2022-08-02T12:45:28;2.33;;;0.40;;
45536;SDS011;31262;51.978;5.924;2022-08-02T12:48:10;1.08;;;0.30;;
45536;SDS011;31262;51.978;5.924;2022-08-02T12:50:36;2.88;;;0.30;;
45536;SDS011;31262;51.978;5.924;2022-08-02T12:55:27;1.08;;;0.20;;
45536;SDS011;31262;51.978;5.924;2022-08-02T12:57:54;1.58;;;0.20;;
45536;SDS011;31262;51.978;5.924;2022-08-02T13:00:23;1.58;;;0.20;;
45536;SDS011;31262;51.978;5.924;2022-08-02T13:02:53;1.08;;;0.30;;
45536;SDS011;31262;51.978;5.924;2022-08-02T13:05:20;1.58;;;0.30;;
45536;SDS011;31262;51.978;5.924;2022-08-02T13:07:45;2.15;;;0.30;;
45536;SDS011;31262;51.978;5.924;2022-08-02T13:10:11;1.92;;;0.40;;
45536;SDS011;31262;51.978;5.924;2022-08-02T13:12:38;2.53;;;0.45;;
45536;SDS011;31262;51.978;5.924;2022-08-02T13:15:05;0.82;;;0.35;;
45536;SDS011;31262;51.978;5.924;2022-08-02T13:17:31;0.98;;;0.30;;
45536;SDS011;31262;51.978;5.924;2022-08-02T13:19:57;1.40;;;0.40;;
45536;SDS011;31262;51.978;5.924;2022-08-02T13:22:22;1.30;;;0.30;;
45536;SDS011;31262;51.978;5.924;2022-08-02T13:24:48;0.80;;;0.20;;
45536;SDS011;31262;51.978;5.924;2022-08-02T13:27:15;0.75;;;0.25;;
45536;SDS011;31262;51.978;5.924;2022-08-02T13:29:41;3.47;;;0.20;;
45536;SDS011;31262;51.978;5.924;2022-08-02T13:32:07;0.85;;;0.30;;
45536;SDS011;31262;51.978;5.924;2022-08-02T13:34:32;1.20;;;0.20;;
45536;SDS011;31262;51.978;5.924;2022-08-02T13:36:58;0.73;;;0.20;;
45536;SDS011;31262;51.978;5.924;2022-08-02T13:39:24;1.13;;;0.40;;
45536;SDS011;31262;51.978;5.924;2022-08-02T13:41:50;1.10;;;0.40;;
45536;SDS011;31262;51.978;5.924;2022-08-02T13:44:15;1.35;;;0.43;;
45536;SDS011;31262;51.978;5.924;2022-08-02T13:46:41;0.70;;;0.30;;
45536;SDS011;31262;51.978;5.924;2022-08-02T13:49:06;2.67;;;0.30;;
45536;SDS011;31262;51.978;5.924;2022-08-02T13:51:32;1.35;;;0.30;;
45536;SDS011;31262;51.978;5.924;2022-08-02T13:53:58;4.57;;;1.33;;
45536;SDS011;31262;51.978;5.924;2022-08-02T13:56:23;2.45;;;0.70;;
45536;SDS011;31262;51.978;5.924;2022-08-02T13:58:49;2.80;;;1.00;;
45536;SDS011;31262;51.978;5.924;2022-08-02T14:01:14;2.00;;;0.40;;
45536;SDS011;31262;51.978;5.924;2022-08-02T14:03:40;0.90;;;0.30;;
45536;SDS011;31262;51.978;5.924;2022-08-02T14:06:06;1.63;;;0.35;;
45536;SDS011;31262;51.978;5.924;2022-08-02T14:08:33;1.20;;;0.20;;
45536;SDS011;31262;51.978;5.924;2022-08-02T14:10:58;2.83;;;0.20;;
45536;SDS011;31262;51.978;5.924;2022-08-02T14:13:24;0.88;;;0.30;;
45536;SDS011;31262;51.978;5.924;2022-08-02T14:15:50;1.20;;;0.20;;
45536;SDS011;31262;51.978;5.924;2022-08-02T14:18:15;0.80;;;0.20;;
45536;SDS011;31262;51.978;5.924;2022-08-02T14:20:42;0.80;;;0.20;;
45536;SDS011;31262;51.978;5.924;2022-08-02T14:23:09;2.72;;;0.60;;
45536;SDS011;31262;51.978;5.924;2022-08-02T14:25:34;1.55;;;0.40;;
45536;SDS011;31262;51.978;5.924;2022-08-02T14:28:01;1.67;;;0.40;;
45536;SDS011;31262;51.978;5.924;2022-08-02T14:30:28;0.90;;;0.30;;
45536;SDS011;31262;51.978;5.924;2022-08-02T14:32:54;1.67;;;0.20;;
45536;SDS011;31262;51.978;5.924;2022-08-02T14:35:19;2.95;;;0.40;;
45536;SDS011;31262;51.978;5.924;2022-08-02T14:37:45;1.10;;;0.30;;
45536;SDS011;31262;51.978;5.924;2022-08-02T14:40:10;0.82;;;0.30;;
45536;SDS011;31262;51.978;5.924;2022-08-02T14:42:37;1.88;;;0.45;;
45536;SDS011;31262;51.978;5.924;2022-08-02T14:45:03;0.70;;;0.20;;
45536;SDS011;31262;51.978;5.924;2022-08-02T14:47:29;0.80;;;0.30;;
45536;SDS011;31262;51.978;5.924;2022-08-02T14:49:55;1.15;;;0.30;;
45536;SDS011;31262;51.978;5.924;2022-08-02T14:52:21;1.02;;;0.20;;
45536;SDS011;31262;51.978;5.924;2022-08-02T14:54:46;1.13;;;0.30;;
45536;SDS011;31262;51.978;5.924;2022-08-02T14:57:12;2.83;;;0.50;;
45536;SDS011;31262;51.978;5.924;2022-08-02T14:59:38;1.73;;;0.38;;
45536;SDS011;31262;51.978;5.924;2022-08-02T15:02:03;3.25;;;0.70;;
45536;SDS011;31262;51.978;5.924;2022-08-02T15:04:29;1.65;;;0.60;;
45536;SDS011;31262;51.978;5.924;2022-08-02T15:06:57;2.78;;;0.50;;
45536;SDS011;31262;51.978;5.924;2022-08-02T15:09:23;1.88;;;0.60;;
45536;SDS011;31262;51.978;5.924;2022-08-02T15:11:49;2.13;;;0.60;;
45536;SDS011;31262;51.978;5.924;2022-08-02T15:14:15;1.92;;;0.50;;
45536;SDS011;31262;51.978;5.924;2022-08-02T15:16:41;2.63;;;0.50;;
45536;SDS011;31262;51.978;5.924;2022-08-02T15:19:06;1.70;;;0.40;;
45536;SDS011;31262;51.978;5.924;2022-08-02T15:21:32;1.10;;;0.30;;
45536;SDS011;31262;51.978;5.924;2022-08-02T15:23:58;2.22;;;0.30;;
45536;SDS011;31262;51.978;5.924;2022-08-02T15:26:23;1.35;;;0.30;;
45536;SDS011;31262;51.978;5.924;2022-08-02T15:28:49;1.42;;;0.30;;
45536;SDS011;31262;51.978;5.924;2022-08-02T15:31:15;1.35;;;0.30;;
45536;SDS011;31262;51.978;5.924;2022-08-02T15:33:42;1.95;;;0.22;;
45536;SDS011;31262;51.978;5.924;2022-08-02T15:36:10;2.22;;;0.25;;
45536;SDS011;31262;51.978;5.924;2022-08-02T15:38:36;1.40;;;0.30;;
45536;SDS011;31262;51.978;5.924;2022-08-02T15:41:02;2.15;;;0.30;;